createdAt,value
2016-05-23T08:18:38.066Z,0
2016-05-23T08:19:37.225Z,0
2016-05-23T08:20:37.258Z,0
2016-05-23T08:21:51.480Z,0
2016-05-23T08:22:37.326Z,0
2016-05-23T08:23:37.376Z,0
2016-05-23T08:24:51.581Z,0
2016-05-23T08:25:37.288Z,765
2016-05-23T08:26:37.321Z,765
2016-05-23T08:27:37.512Z,760
2016-05-23T08:28:37.561Z,745
2016-05-23T08:29:38.736Z,0
2016-05-23T08:30:51.817Z,0
2016-05-23T08:31:37.663Z,755
2016-05-23T08:32:37.572Z,750
2016-05-23T08:33:37.622Z,745
2016-05-23T08:34:37.781Z,755
2016-05-23T08:35:37.815Z,750
2016-05-23T08:36:37.848Z,745
2016-05-23T08:37:37.898Z,745
2016-05-23T08:38:37.932Z,740
2016-05-23T08:39:37.966Z,735
2016-05-23T08:40:52.187Z,735
2016-05-23T08:41:38.033Z,730
2016-05-23T08:42:38.067Z,730
2016-05-23T08:43:38.117Z,730
2016-05-23T08:44:38.152Z,725
2016-05-23T08:45:38.030Z,730
2016-05-23T08:46:38.235Z,735
2016-05-23T08:47:38.269Z,730
2016-05-23T08:48:38.303Z,730
2016-05-23T08:49:38.336Z,680
2016-05-23T08:50:38.370Z,660
2016-05-23T08:51:38.263Z,705
2016-05-23T08:52:38.454Z,685
2016-05-23T08:53:38.347Z,620
2016-05-23T08:54:38.210Z,665
2016-05-23T08:55:38.557Z,710
2016-05-23T08:56:52.777Z,700
2016-05-23T08:57:38.624Z,700
2016-05-23T08:58:38.673Z,690
2016-05-23T08:59:39.004Z,0
2016-05-23T09:00:38.585Z,690
2016-05-23T09:01:38.775Z,690
2016-05-23T09:02:38.825Z,680
2016-05-23T09:03:38.843Z,685
2016-05-23T09:04:38.909Z,675
2016-05-23T09:05:38.942Z,670
2016-05-23T09:06:38.961Z,670
2016-05-23T09:07:38.979Z,670
2016-05-23T09:08:39.044Z,660
2016-05-23T09:09:38.765Z,660
2016-05-23T09:10:39.236Z,660
2016-05-23T09:11:53.177Z,665
2016-05-23T09:12:53.055Z,660
2016-05-23T09:13:39.214Z,650
2016-05-23T09:14:39.279Z,645
2016-05-23T09:15:39.281Z,645
2016-05-23T09:17:39.366Z,640
2016-05-23T09:18:39.400Z,0
2016-05-23T09:19:39.277Z,640
2016-05-23T09:20:39.467Z,640
2016-05-23T09:21:39.360Z,640
2016-05-23T09:22:39.394Z,640
2016-05-23T09:24:39.712Z,635
2016-05-23T09:25:53.840Z,0
2016-05-23T09:26:39.702Z,630
2016-05-23T09:27:41.188Z,625
2016-05-23T09:28:53.957Z,620
2016-05-23T09:29:40.085Z,0
2016-05-23T09:30:39.681Z,615
2016-05-23T09:31:39.715Z,615
2016-05-23T09:32:42.937Z,605
2016-05-23T09:33:39.939Z,600
2016-05-23T09:34:39.973Z,600
2016-05-23T09:41:45.211Z,360
2016-05-23T09:43:01.089Z,345
2016-05-23T09:43:59.451Z,340
2016-05-23T09:44:45.313Z,340
2016-05-23T09:45:59.519Z,335
2016-05-23T09:46:45.364Z,335
2016-05-23T09:47:45.415Z,330
2016-05-23T09:48:45.449Z,330
2016-05-23T09:49:45.466Z,330
2016-05-23T09:50:59.704Z,330
2016-05-23T09:52:00.910Z,330
2016-05-23T09:52:59.772Z,325
2016-05-23T09:53:45.321Z,325
2016-05-23T09:54:45.496Z,330
2016-05-23T09:55:45.686Z,325
2016-05-23T09:56:45.579Z,325
2016-05-23T09:57:45.629Z,325
2016-05-23T09:58:45.632Z,325
2016-05-23T09:59:59.557Z,325
2016-05-23T10:00:45.856Z,320
2016-05-23T10:01:45.890Z,320
2016-05-23T10:02:45.908Z,320
2016-05-23T10:03:45.958Z,320
2016-05-23T10:04:45.835Z,315
2016-05-23T10:05:46.026Z,315
2016-05-23T10:06:46.075Z,315
2016-05-23T10:07:47.546Z,310
2016-05-23T10:08:46.127Z,315
2016-05-23T10:09:46.161Z,310
2016-05-23T10:10:46.211Z,310
2016-05-23T10:12:00.417Z,310
2016-05-23T10:12:46.278Z,310
2016-05-23T10:13:46.312Z,310
2016-05-23T10:14:46.800Z,315
2016-05-23T10:16:00.568Z,310
2016-05-23T10:16:46.430Z,305
2016-05-23T10:17:46.463Z,300
2016-05-23T10:18:46.498Z,305
2016-05-23T10:20:00.547Z,305
2016-05-23T10:20:46.081Z,310
2016-05-23T10:21:46.443Z,295
2016-05-23T10:23:00.805Z,265
2016-05-23T10:23:46.652Z,270
2016-05-23T10:24:47.780Z,220
2016-05-23T10:25:46.735Z,180
2016-05-23T10:26:46.769Z,225
2016-05-23T10:27:46.804Z,300
2016-05-23T10:28:46.838Z,300
2016-05-23T10:29:48.777Z,300
2016-05-23T10:30:46.593Z,300
2016-05-23T10:32:01.111Z,300
2016-05-23T10:33:01.005Z,300
2016-05-23T10:33:46.990Z,300
2016-05-23T10:34:49.462Z,300
2016-05-23T10:35:47.075Z,300
2016-05-23T10:36:47.109Z,300
2016-05-23T10:37:46.986Z,300
2016-05-23T10:38:47.176Z,295
2016-05-23T10:39:48.070Z,295
2016-05-23T10:41:01.432Z,295
2016-05-23T10:41:47.278Z,295
2016-05-23T10:43:15.687Z,290
2016-05-23T10:43:47.361Z,290
2016-05-23T10:44:48.224Z,290
2016-05-23T10:45:47.398Z,285
2016-05-23T10:46:47.448Z,275
2016-05-23T10:48:01.669Z,240
2016-05-23T10:48:47.516Z,240
2016-05-23T10:49:47.269Z,285
2016-05-23T10:50:47.428Z,290
2016-05-23T10:51:47.618Z,265
2016-05-23T10:53:01.855Z,255
2016-05-23T10:54:03.155Z,220
2016-05-23T10:54:48.517Z,240
2016-05-23T10:55:47.754Z,280
2016-05-23T10:57:01.974Z,290
2016-05-23T10:57:47.821Z,290
2016-05-23T10:59:02.043Z,290
2016-05-23T10:59:47.968Z,290
2016-05-23T11:00:47.923Z,290
2016-05-23T11:01:47.801Z,295
2016-05-23T11:03:02.194Z,295
2016-05-23T11:03:48.041Z,295
2016-05-23T11:04:48.059Z,280
2016-05-23T11:05:48.109Z,235
2016-05-23T11:07:02.330Z,280
2016-05-23T11:07:48.177Z,265
2016-05-23T11:08:48.195Z,275
2016-05-23T11:09:48.245Z,295
2016-05-23T11:10:48.278Z,310
2016-05-23T11:12:02.343Z,305
2016-05-23T11:12:48.175Z,295
2016-05-23T11:13:48.380Z,285
2016-05-23T11:14:48.570Z,290
2016-05-23T11:15:48.433Z,275
2016-05-23T11:16:48.482Z,280
2016-05-23T11:18:02.689Z,290
2016-05-23T11:18:48.394Z,285
2016-05-23T11:19:48.428Z,280
2016-05-23T11:22:02.839Z,225
2016-05-23T11:23:02.858Z,235
2016-05-23T11:23:48.704Z,240
2016-05-23T11:24:48.738Z,210
2016-05-23T11:25:48.616Z,180
2016-05-23T11:26:48.650Z,170
2016-05-23T11:27:48.840Z,165
2016-05-23T11:29:03.061Z,185
2016-05-23T11:29:49.142Z,200
2016-05-23T11:31:03.129Z,225
2016-05-23T11:32:03.163Z,225
2016-05-23T11:35:03.109Z,165
2016-05-23T11:36:03.143Z,150
2016-05-23T11:36:49.005Z,140
2016-05-23T11:37:49.023Z,130
2016-05-23T11:39:03.401Z,135
2016-05-23T11:39:49.090Z,140
2016-05-23T11:40:49.296Z,165
2016-05-23T11:41:49.315Z,200
2016-05-23T11:43:03.536Z,205
2016-05-23T11:43:49.383Z,210
2016-05-23T11:44:49.448Z,210
2016-05-23T11:45:49.450Z,235
2016-05-23T11:46:49.328Z,210
2016-05-23T11:47:49.206Z,215
2016-05-23T11:48:49.552Z,215
2016-05-23T11:49:49.570Z,215
2016-05-23T11:51:03.636Z,225
2016-05-23T11:51:49.670Z,210
2016-05-23T11:52:49.689Z,215
2016-05-23T11:53:49.706Z,205
2016-05-23T11:54:49.616Z,200
2016-05-23T11:55:49.790Z,185
2016-05-23T11:56:49.824Z,180
2016-05-23T11:57:49.842Z,180
2016-05-23T11:58:49.877Z,185
2016-05-23T11:59:50.177Z,195
2016-05-23T12:01:04.131Z,200
2016-05-23T12:01:49.837Z,210
2016-05-23T12:03:04.199Z,220
2016-05-23T12:03:50.046Z,225
2016-05-23T12:04:50.065Z,235
2016-05-23T12:05:50.099Z,235
2016-05-23T12:07:04.304Z,240
2016-05-23T12:07:50.026Z,240
2016-05-23T12:08:50.201Z,240
2016-05-23T12:09:50.235Z,250
2016-05-23T12:10:50.268Z,255
2016-05-23T12:11:50.145Z,255
2016-05-23T12:13:50.354Z,255
2016-05-23T12:14:50.748Z,270
2016-05-23T12:15:50.422Z,300
2016-05-23T12:17:04.659Z,280
2016-05-23T12:18:04.692Z,290
2016-05-23T12:18:50.523Z,295
2016-05-23T12:19:50.558Z,310
2016-05-23T12:20:50.608Z,310
2016-05-23T12:21:50.470Z,310
2016-05-23T12:23:04.863Z,285
2016-05-23T12:23:50.694Z,280
2016-05-23T12:24:50.571Z,300
2016-05-23T12:25:50.746Z,275
2016-05-23T12:27:50.830Z,260
2016-05-23T12:28:50.863Z,240
2016-05-23T12:29:51.350Z,230
2016-05-23T12:30:50.931Z,235
2016-05-23T12:31:50.793Z,250
2016-05-23T12:33:05.015Z,265
2016-05-23T12:33:50.876Z,315
2016-05-23T12:34:51.207Z,345
2016-05-23T12:35:51.179Z,350
2016-05-23T12:36:51.119Z,330
2016-05-23T12:38:05.372Z,315
2016-05-23T12:38:51.296Z,300
2016-05-23T12:40:05.392Z,285
2016-05-23T12:40:51.254Z,275
2016-05-23T12:41:51.289Z,270
2016-05-23T12:42:51.010Z,265
2016-05-23T12:43:51.185Z,265
2016-05-23T12:44:51.437Z,260
2016-05-23T12:46:05.596Z,255
2016-05-23T12:47:05.631Z,260
2016-05-23T12:48:51.354Z,270
2016-05-23T12:49:51.935Z,275
2016-05-23T12:50:51.829Z,275
2016-05-23T12:51:51.644Z,275
2016-05-23T12:52:51.709Z,290
2016-05-23T12:54:05.915Z,275
2016-05-23T12:54:51.542Z,290
2016-05-23T12:55:51.591Z,290
2016-05-23T12:56:51.782Z,285
2016-05-23T12:57:51.347Z,285
2016-05-23T12:58:51.835Z,305
2016-05-23T12:59:51.899Z,320
2016-05-23T13:00:51.902Z,320
2016-05-23T13:01:51.780Z,325
2016-05-23T13:02:51.971Z,315
2016-05-23T13:03:51.848Z,305
2016-05-23T13:04:51.882Z,300
2016-05-23T13:05:52.057Z,295
2016-05-23T13:06:52.090Z,300
2016-05-23T13:07:52.124Z,295
2016-05-23T13:08:52.158Z,300
2016-05-23T13:10:51.945Z,290
2016-05-23T13:11:52.104Z,280
2016-05-23T13:12:52.293Z,275
2016-05-23T13:13:52.328Z,275
2016-05-23T13:15:06.970Z,295
2016-05-23T13:15:52.084Z,275
2016-05-23T13:16:52.414Z,280
2016-05-23T13:18:06.651Z,280
2016-05-23T13:18:52.482Z,265
2016-05-23T13:19:52.219Z,260
2016-05-23T13:20:52.565Z,250
2016-05-23T13:22:52.477Z,240
2016-05-23T13:23:52.652Z,240
2016-05-23T13:24:52.701Z,270
2016-05-23T13:26:06.892Z,270
2016-05-23T13:26:52.753Z,265
2016-05-23T13:27:52.772Z,270
2016-05-23T13:28:52.666Z,270
2016-05-23T13:30:52.874Z,275
2016-05-23T13:31:52.907Z,260
2016-05-23T13:32:52.802Z,255
2016-05-23T13:33:52.975Z,275
2016-05-23T13:34:53.009Z,280
2016-05-23T13:36:07.075Z,280
2016-05-23T13:36:52.765Z,280
2016-05-23T13:37:53.110Z,280
2016-05-23T13:38:53.146Z,275
2016-05-23T13:39:53.195Z,270
2016-05-23T13:40:53.198Z,255
2016-05-23T13:42:07.263Z,265
2016-05-23T13:42:53.266Z,250
2016-05-23T13:43:53.283Z,245
2016-05-23T13:44:53.365Z,265
2016-05-23T13:46:07.539Z,270
2016-05-23T13:47:07.589Z,270
2016-05-23T13:47:53.434Z,270
2016-05-23T13:48:53.469Z,260
2016-05-23T13:50:07.675Z,255
2016-05-23T13:50:53.537Z,255
2016-05-23T13:52:07.743Z,245
2016-05-23T13:52:53.606Z,235
2016-05-23T13:53:53.638Z,240
2016-05-23T13:54:53.656Z,255
2016-05-23T13:55:53.691Z,260
2016-05-23T13:56:53.725Z,255
2016-05-23T13:58:07.789Z,235
2016-05-23T13:58:53.792Z,230
2016-05-23T13:59:53.842Z,240
2016-05-23T14:00:53.704Z,250
2016-05-23T14:01:53.879Z,260
2016-05-23T14:02:53.913Z,250
2016-05-23T14:03:53.791Z,275
2016-05-23T14:05:08.012Z,280
2016-05-23T14:05:54.015Z,270
2016-05-23T14:07:08.236Z,265
2016-05-23T14:07:54.066Z,260
2016-05-23T14:08:54.132Z,255
2016-05-23T14:10:54.168Z,250
2016-05-23T14:11:54.047Z,250
2016-05-23T14:13:08.268Z,260
2016-05-23T14:14:08.442Z,255
2016-05-23T14:14:53.992Z,250
2016-05-23T14:15:54.010Z,245
2016-05-23T14:16:54.201Z,245
2016-05-23T14:18:08.578Z,250
2016-05-23T14:18:54.440Z,250
2016-05-23T14:19:54.303Z,235
2016-05-23T14:20:54.492Z,225
2016-05-23T14:22:08.714Z,235
2016-05-23T14:23:08.732Z,225
2016-05-23T14:24:10.922Z,215
2016-05-23T14:25:08.847Z,195
2016-05-23T14:26:54.539Z,220
2016-05-23T14:27:54.714Z,225
2016-05-23T14:28:54.748Z,215
2016-05-23T14:30:09.220Z,230
2016-05-23T14:30:54.660Z,225
2016-05-23T14:31:54.850Z,220
2016-05-23T14:32:54.743Z,215
2016-05-23T14:33:54.919Z,210
2016-05-23T14:35:09.124Z,210
2016-05-23T14:35:54.971Z,220
2016-05-23T14:37:23.379Z,225
2016-05-23T14:37:54.585Z,230
2016-05-23T14:39:09.104Z,210
2016-05-23T14:40:09.138Z,205
2016-05-23T14:41:55.174Z,205
2016-05-23T14:42:55.192Z,210
2016-05-23T14:43:55.226Z,205
2016-05-23T14:45:09.291Z,210
2016-05-23T14:45:55.294Z,205
2016-05-23T14:48:09.549Z,185
2016-05-23T14:48:55.239Z,180
2016-05-23T14:49:55.415Z,170
2016-05-23T14:51:09.479Z,165
2016-05-23T14:51:55.482Z,165
2016-05-23T14:52:55.517Z,165
2016-05-23T14:53:55.534Z,190
2016-05-23T14:54:55.600Z,200
2016-05-23T14:55:55.617Z,195
2016-05-23T14:56:55.167Z,195
2016-05-23T14:57:55.514Z,185
2016-05-23T14:59:55.441Z,145
2016-05-23T15:01:09.788Z,135
2016-05-23T15:01:55.633Z,145
2016-05-23T15:02:55.825Z,135
2016-05-23T15:04:09.889Z,140
2016-05-23T15:04:55.892Z,145
2016-05-23T15:06:10.114Z,140
2016-05-23T15:06:55.788Z,140
2016-05-23T15:07:55.822Z,140
2016-05-23T15:09:10.043Z,140
2016-05-23T15:09:55.874Z,140
2016-05-23T15:10:56.080Z,135
2016-05-23T15:12:09.974Z,145
2016-05-23T15:12:55.991Z,145
2016-05-23T15:13:56.026Z,150
2016-05-23T15:14:56.200Z,145
2016-05-23T15:15:56.218Z,165
2016-05-23T15:17:10.440Z,135
2016-05-23T15:17:56.287Z,145
2016-05-23T15:18:56.321Z,145
2016-05-23T15:19:56.354Z,145
2016-05-23T15:21:10.420Z,140
2016-05-23T15:21:56.423Z,140
2016-05-23T15:23:10.472Z,175
2016-05-23T15:23:56.318Z,180
2016-05-23T15:24:56.352Z,180
2016-05-23T15:26:10.730Z,175
2016-05-23T15:26:56.420Z,140
2016-05-23T15:27:56.594Z,180
2016-05-23T15:28:56.629Z,185
2016-05-23T15:29:56.381Z,175
2016-05-23T15:30:56.540Z,160
2016-05-23T15:33:10.780Z,155
2016-05-23T15:33:56.783Z,145
2016-05-23T15:35:10.848Z,125
2016-05-23T15:35:56.694Z,135
2016-05-23T15:37:11.055Z,130
2016-05-23T15:37:56.903Z,135
2016-05-23T15:38:56.936Z,135
2016-05-23T15:39:56.830Z,135
2016-05-23T15:40:56.849Z,125
2016-05-23T15:41:57.038Z,125
2016-05-23T15:43:25.416Z,125
2016-05-23T15:43:57.075Z,125
2016-05-23T15:45:11.312Z,120
2016-05-23T15:45:57.143Z,120
2016-05-23T15:46:57.177Z,120
2016-05-23T15:48:11.383Z,115
2016-05-23T15:48:56.932Z,115
2016-05-23T15:49:56.951Z,110
2016-05-23T15:50:57.157Z,110
2016-05-23T15:51:57.346Z,110
2016-05-23T15:52:57.349Z,105
2016-05-23T15:54:11.592Z,100
2016-05-23T15:54:57.290Z,100
2016-05-23T15:55:57.504Z,100
2016-05-23T15:56:57.389Z,100
2016-05-23T15:58:11.791Z,105
2016-05-23T15:58:57.672Z,100
2016-05-23T15:59:58.011Z,100
2016-05-23T16:00:57.726Z,95
2016-05-23T16:01:57.783Z,90
2016-05-23T16:02:57.653Z,90
2016-05-23T16:03:57.852Z,85
2016-05-23T16:04:57.874Z,80
2016-05-23T16:06:11.785Z,75
2016-05-23T16:06:57.963Z,75
2016-05-23T16:07:57.828Z,75
2016-05-23T16:08:58.036Z,75
2016-05-23T16:09:58.055Z,75
2016-05-23T16:10:57.965Z,80
2016-05-23T16:12:12.282Z,80
2016-05-23T16:12:58.129Z,80
2016-05-23T16:13:58.180Z,80
2016-05-23T16:14:58.714Z,80
2016-05-23T16:15:58.233Z,80
2016-05-23T16:17:58.286Z,75
2016-05-23T16:18:58.164Z,75
2016-05-23T16:20:12.526Z,75
2016-05-23T16:21:12.561Z,80
2016-05-23T16:21:58.094Z,80
2016-05-23T16:22:58.284Z,80
2016-05-23T16:23:58.302Z,85
2016-05-23T16:24:58.492Z,90
2016-05-23T16:25:58.527Z,95
2016-05-23T16:28:12.766Z,100
2016-05-23T16:29:12.801Z,100
2016-05-23T16:29:59.006Z,105
2016-05-23T16:30:58.369Z,105
2016-05-23T16:31:58.715Z,100
2016-05-23T16:33:12.920Z,110
2016-05-23T16:34:00.516Z,110
2016-05-23T16:34:58.801Z,115
2016-05-23T16:36:13.007Z,110
2016-05-23T16:36:58.853Z,110
2016-05-23T16:37:58.871Z,115
2016-05-23T16:38:58.921Z,115
2016-05-23T16:40:13.127Z,110
2016-05-23T16:40:58.973Z,110
2016-05-23T16:41:59.023Z,110
2016-05-23T16:43:13.213Z,105
2016-05-23T16:44:13.232Z,100
2016-05-23T16:44:59.062Z,100
2016-05-23T16:45:59.111Z,100
2016-05-23T16:46:59.145Z,100
2016-05-23T16:47:59.179Z,100
2016-05-23T16:49:00.339Z,95
2016-05-23T16:49:59.232Z,90
2016-05-23T16:50:59.266Z,90
2016-05-23T16:52:13.487Z,85
2016-05-23T16:52:59.318Z,85
2016-05-23T16:54:13.524Z,85
2016-05-23T16:55:59.405Z,85
2016-05-23T16:58:13.503Z,80
2016-05-23T16:59:13.522Z,75
2016-05-23T16:59:59.540Z,75
2016-05-23T17:00:59.543Z,75
2016-05-23T17:01:59.577Z,75
2016-05-23T17:02:59.455Z,70
2016-05-23T17:03:59.644Z,70
2016-05-23T17:04:59.679Z,70
2016-05-23T17:05:59.696Z,70
2016-05-23T17:06:59.559Z,70
2016-05-23T17:08:13.796Z,70
2016-05-23T17:09:03.704Z,70
2016-05-23T17:09:59.677Z,65
2016-05-23T17:11:14.054Z,65
2016-05-23T17:12:14.057Z,65
2016-05-23T17:13:14.091Z,65
2016-05-23T17:14:02.203Z,60
2016-05-23T17:15:00.487Z,60
2016-05-23T17:16:14.176Z,60
2016-05-23T17:16:59.867Z,60
2016-05-23T17:18:00.057Z,55
2016-05-23T17:19:03.654Z,55
2016-05-23T17:20:14.297Z,55
2016-05-23T17:21:00.128Z,55
2016-05-23T17:22:00.005Z,55
2016-05-23T17:23:14.367Z,50
2016-05-23T17:24:04.262Z,50
2016-05-23T17:25:00.091Z,50
2016-05-23T17:26:00.282Z,50
2016-05-23T17:27:00.316Z,50
2016-05-23T17:28:00.334Z,50
2016-05-23T17:29:03.306Z,50
2016-05-23T17:30:14.277Z,50
2016-05-23T17:31:00.420Z,45
2016-05-23T17:32:00.298Z,45
2016-05-23T17:33:00.316Z,45
2016-05-23T17:34:02.491Z,45
2016-05-23T17:35:00.525Z,45
2016-05-23T17:38:00.643Z,40
2016-05-23T17:39:02.926Z,40
2016-05-23T17:40:00.680Z,35
2016-05-23T17:41:00.729Z,35
2016-05-23T17:42:00.418Z,35
2016-05-23T17:46:15.039Z,35
2016-05-23T17:47:00.885Z,35
2016-05-23T17:48:15.091Z,30
2016-05-23T17:49:16.422Z,30
2016-05-23T17:50:15.143Z,30
2016-05-23T17:51:01.021Z,30
2016-05-23T17:53:01.073Z,30
2016-05-23T17:54:02.169Z,30
2016-05-23T17:55:15.157Z,30
2016-05-23T17:58:01.181Z,30
2016-05-23T18:00:01.592Z,30
2016-05-23T18:01:01.125Z,25
2016-05-23T18:02:15.488Z,25
2016-05-23T18:03:01.335Z,25
2016-05-23T18:04:15.556Z,25
2016-05-23T18:05:01.402Z,25
2016-05-23T18:06:01.264Z,25
2016-05-23T18:07:01.283Z,25
2016-05-23T18:08:01.488Z,25
2016-05-23T18:09:01.929Z,25
2016-05-23T18:10:01.524Z,25
2016-05-23T18:11:15.747Z,20
2016-05-23T18:12:01.593Z,20
2016-05-23T18:13:01.455Z,20
2016-05-23T18:15:01.867Z,20
2016-05-23T18:16:01.697Z,20
2016-05-23T18:17:01.559Z,20
2016-05-23T18:18:01.751Z,20
2016-05-23T18:20:01.818Z,20
2016-05-23T18:21:01.836Z,20
2016-05-23T18:23:01.889Z,15
2016-05-23T18:24:03.937Z,15
2016-05-23T18:25:15.987Z,15
2016-05-23T18:26:01.818Z,15
2016-05-23T18:27:16.196Z,15
2016-05-23T18:28:01.870Z,15
2016-05-23T18:29:16.092Z,15
2016-05-23T18:30:16.189Z,15
2016-05-23T18:31:02.144Z,10
2016-05-23T18:32:01.834Z,10
2016-05-23T18:33:16.196Z,10
2016-05-23T18:34:04.308Z,10
2016-05-23T18:35:02.233Z,10
2016-05-23T18:36:02.252Z,10
2016-05-23T18:37:02.301Z,10
2016-05-23T18:38:02.304Z,10
2016-05-23T18:39:03.932Z,10
2016-05-23T18:40:02.371Z,5
2016-05-23T18:41:02.249Z,5
2016-05-23T18:42:02.440Z,5
2016-05-23T18:43:16.629Z,5
2016-05-23T18:44:06.007Z,5
2016-05-23T18:45:02.385Z,5
2016-05-23T18:46:02.528Z,5
2016-05-23T18:47:02.547Z,5
2016-05-23T18:48:16.768Z,5
2016-05-23T18:49:03.474Z,5
2016-05-23T18:50:02.648Z,0
2016-05-23T18:51:02.667Z,0
2016-05-23T18:52:16.887Z,0
2016-05-23T18:53:02.672Z,0
2016-05-23T18:54:04.972Z,0
2016-05-23T18:55:02.771Z,0
2016-05-23T18:56:16.993Z,0
2016-05-23T18:57:02.823Z,0
2016-05-23T18:58:17.045Z,0
2016-05-23T18:59:02.906Z,0
2016-05-23T19:00:03.534Z,0
2016-05-23T19:01:02.944Z,0
2016-05-23T19:02:02.822Z,0
2016-05-23T19:03:02.996Z,0
2016-05-23T19:04:17.202Z,0
2016-05-23T19:05:03.047Z,0
2016-05-23T19:06:03.098Z,0
2016-05-23T19:07:17.288Z,0
2016-05-23T19:08:02.838Z,0
2016-05-23T19:09:03.183Z,0
2016-05-23T19:11:03.220Z,0
2016-05-23T19:12:17.426Z,0
2016-05-23T19:13:03.117Z,0
2016-05-23T19:14:06.463Z,0
2016-05-23T19:15:03.184Z,0
2016-05-23T19:16:03.202Z,0
2016-05-23T19:17:03.393Z,0
2016-05-23T19:18:03.271Z,0
2016-05-23T19:19:05.492Z,0
2016-05-23T19:20:03.463Z,0
2016-05-23T19:21:17.685Z,0
2016-05-23T19:22:31.890Z,0
2016-05-23T19:23:03.550Z,0
2016-05-23T19:24:17.631Z,0
2016-05-23T19:25:17.805Z,0
2016-05-23T19:26:03.495Z,0
2016-05-23T19:27:03.498Z,0
2016-05-23T19:28:03.673Z,0
2016-05-23T19:29:04.472Z,0
2016-05-23T19:30:17.615Z,0
2016-05-23T19:31:03.758Z,0
2016-05-23T19:32:03.793Z,0
2016-05-23T19:33:03.811Z,0
2016-05-23T19:34:04.705Z,0
2016-05-23T19:35:03.864Z,0
2016-05-23T19:36:03.913Z,0
2016-05-23T19:37:03.774Z,0
2016-05-23T19:38:03.949Z,0
2016-05-23T19:39:21.077Z,0
2016-05-23T19:41:04.052Z,0
2016-05-23T19:42:03.897Z,0
2016-05-23T19:43:04.104Z,0
2016-05-23T19:44:06.059Z,0
2016-05-23T19:45:04.140Z,0
2016-05-23T19:46:18.205Z,0
2016-05-23T19:47:04.208Z,0
2016-05-23T19:48:18.398Z,0
2016-05-23T19:49:05.807Z,0
2016-05-23T19:50:04.278Z,0
2016-05-23T19:51:18.485Z,0
2016-05-23T19:52:04.018Z,0
2016-05-23T19:53:04.037Z,0
2016-05-23T19:54:05.195Z,0
2016-05-23T19:55:04.417Z,0
2016-05-23T19:56:04.450Z,0
2016-05-23T19:57:04.297Z,0
2016-05-23T19:58:18.363Z,0
2016-05-23T19:59:05.912Z,0
2016-05-23T20:00:19.775Z,0
2016-05-23T20:01:19.433Z,0
2016-05-23T20:02:18.780Z,0
2016-05-23T20:03:04.610Z,0
2016-05-23T20:04:06.520Z,0
2016-05-23T20:05:04.522Z,0
2016-05-23T20:06:18.884Z,0
2016-05-23T20:07:04.730Z,0
2016-05-23T20:09:07.517Z,0
2016-05-23T20:11:04.694Z,0
2016-05-23T20:14:05.249Z,0
2016-05-23T20:15:05.033Z,0
2016-05-23T20:16:04.989Z,0
2016-05-23T20:17:04.992Z,0
2016-05-23T20:18:19.041Z,0
2016-05-23T20:19:07.576Z,0
2016-05-23T20:21:04.971Z,0
2016-05-23T20:23:19.337Z,0
2016-05-23T20:24:06.995Z,0
2016-05-23T20:26:33.609Z,0
2016-05-23T20:27:05.113Z,0
2016-05-23T20:28:19.459Z,0
2016-05-23T20:29:06.914Z,0
2016-05-23T20:30:06.214Z,0
2016-05-23T20:31:05.217Z,0
2016-05-23T20:32:05.391Z,0
2016-05-23T20:33:19.441Z,0
2016-05-23T20:35:05.478Z,0
2016-05-23T20:36:05.496Z,0
2016-05-23T20:37:19.702Z,0
2016-05-23T20:38:05.392Z,0
2016-05-23T20:39:22.769Z,0
2016-05-23T20:40:05.600Z,0
2016-05-23T20:41:05.166Z,0
2016-05-23T20:42:19.841Z,0
2016-05-23T20:43:19.874Z,0
2016-05-23T20:44:06.189Z,0
2016-05-23T20:45:20.004Z,0
2016-05-23T20:46:05.774Z,0
2016-05-23T20:47:05.806Z,0
2016-05-23T20:48:05.810Z,0
2016-05-23T20:49:21.750Z,0
2016-05-23T20:50:05.862Z,0
2016-05-23T20:52:05.929Z,0
2016-05-23T20:53:05.635Z,0
2016-05-23T20:54:07.295Z,0
2016-05-23T20:55:06.001Z,0
2016-05-23T20:56:05.878Z,0
2016-05-23T20:57:20.084Z,0
2016-05-23T20:58:06.086Z,0
2016-05-23T20:59:22.901Z,0
2016-05-23T21:00:20.357Z,0
2016-05-23T21:01:06.173Z,0
2016-05-23T21:02:06.175Z,0
2016-05-23T21:03:06.069Z,0
2016-05-23T21:04:07.056Z,0
2016-05-23T21:05:20.450Z,0
2016-05-23T21:06:05.983Z,0
2016-05-23T21:07:06.314Z,0
2016-05-23T21:08:06.191Z,0
2016-05-23T21:09:10.335Z,0
2016-05-23T21:10:20.415Z,0
2016-05-23T21:11:06.419Z,0
2016-05-23T21:12:06.437Z,0
2016-05-23T21:13:06.174Z,0
2016-05-23T21:15:06.272Z,0
2016-05-23T21:16:06.540Z,0
2016-05-23T21:17:06.418Z,0
2016-05-23T21:18:06.438Z,0
2016-05-23T21:19:08.205Z,0
2016-05-23T21:21:20.851Z,0
2016-05-23T21:22:06.541Z,0
2016-05-23T21:23:06.716Z,0
2016-05-23T21:24:10.797Z,0
2016-05-23T21:25:20.799Z,0
2016-05-23T21:26:06.802Z,0
2016-05-23T21:27:06.664Z,0
2016-05-23T21:28:06.839Z,0
2016-05-23T21:29:23.123Z,0
2016-05-23T21:30:06.751Z,0
2016-05-23T21:31:21.112Z,0
2016-05-23T21:32:06.959Z,0
2016-05-23T21:33:06.836Z,0
2016-05-23T21:34:21.731Z,0
2016-05-23T21:35:06.889Z,0
2016-05-23T21:36:07.064Z,0
2016-05-23T21:37:21.253Z,0
2016-05-23T21:38:07.084Z,0
2016-05-23T21:39:08.649Z,0
2016-05-23T21:41:07.172Z,0
2016-05-23T21:42:21.377Z,0
2016-05-23T21:43:07.052Z,0
2016-05-23T21:44:08.007Z,0
2016-05-23T21:45:07.385Z,0
2016-05-23T21:46:07.293Z,0
2016-05-23T21:47:21.500Z,0
2016-05-23T21:48:07.346Z,0
2016-05-23T21:49:08.224Z,0
2016-05-23T21:50:07.398Z,0
2016-05-23T21:51:21.604Z,0
2016-05-23T21:52:07.451Z,0
2016-05-23T21:53:21.656Z,0
2016-05-23T21:54:07.659Z,0
2016-05-23T21:56:07.539Z,0
2016-05-23T21:57:07.417Z,0
2016-05-23T21:58:07.592Z,0
2016-05-23T21:59:08.516Z,0
2016-05-23T22:00:07.440Z,0
2016-05-23T22:01:07.521Z,0
2016-05-23T22:02:07.367Z,0
2016-05-23T22:03:21.901Z,0
2016-05-23T22:04:22.873Z,0
2016-05-23T22:05:07.782Z,0
2016-05-23T22:06:07.785Z,0
2016-05-23T22:07:07.834Z,0
2016-05-23T22:08:22.025Z,0
2016-05-23T22:09:07.699Z,0
2016-05-23T22:10:07.889Z,0
2016-05-23T22:11:07.907Z,0
2016-05-23T22:12:07.942Z,0
2016-05-23T22:13:07.803Z,0
2016-05-23T22:14:07.822Z,0
2016-05-23T22:15:22.074Z,0
2016-05-23T22:16:22.219Z,0
2016-05-23T22:17:08.064Z,0
2016-05-23T22:18:08.083Z,0
2016-05-23T22:19:08.116Z,0
2016-05-23T22:20:07.822Z,0
2016-05-23T22:21:08.154Z,0
2016-05-23T22:22:08.187Z,0
2016-05-23T22:23:08.205Z,0
2016-05-23T22:24:08.240Z,0
2016-05-23T22:25:07.929Z,0
2016-05-23T22:26:08.276Z,0
2016-05-23T22:27:08.310Z,0
2016-05-23T22:28:08.329Z,0
2016-05-23T22:29:22.582Z,0
2016-05-23T22:30:08.318Z,0
2016-05-23T22:31:08.399Z,0
2016-05-23T22:32:08.433Z,0
2016-05-23T22:33:08.451Z,0
2016-05-23T22:34:08.329Z,0
2016-05-23T22:35:08.504Z,0
2016-05-23T22:36:08.225Z,0
2016-05-23T22:37:08.399Z,0
2016-05-23T22:38:08.574Z,0
2016-05-23T22:39:08.608Z,0
2016-05-23T22:40:22.813Z,0
2016-05-23T22:41:08.645Z,0
2016-05-23T22:42:08.522Z,0
2016-05-23T22:43:08.572Z,0
2016-05-23T22:44:08.575Z,0
2016-05-23T22:45:22.780Z,0
2016-05-23T22:46:08.783Z,0
2016-05-23T22:47:08.630Z,0
2016-05-23T22:48:08.647Z,0
2016-05-23T22:49:08.854Z,0
2016-05-23T22:50:08.872Z,0
2016-05-23T22:51:08.890Z,0
2016-05-23T22:52:08.612Z,0
2016-05-23T22:53:08.786Z,0
2016-05-23T22:54:08.804Z,0
2016-05-23T22:56:23.185Z,0
2016-05-23T22:57:08.610Z,0
2016-05-23T22:58:09.066Z,0
2016-05-23T22:59:09.084Z,0
2016-05-23T23:00:09.634Z,0
2016-05-23T23:01:09.136Z,0
2016-05-23T23:02:08.857Z,0
2016-05-23T23:03:09.031Z,0
2016-05-23T23:04:09.051Z,0
2016-05-23T23:06:09.243Z,0
2016-05-23T23:07:09.277Z,0
2016-05-23T23:08:09.156Z,0
2016-05-23T23:09:09.203Z,0
2016-05-23T23:10:09.191Z,0
2016-05-23T23:11:09.381Z,0
2016-05-23T23:12:23.587Z,0
2016-05-23T23:13:09.418Z,0
2016-05-23T23:14:09.297Z,0
2016-05-23T23:15:10.189Z,0
2016-05-23T23:16:09.520Z,0
2016-05-23T23:17:09.397Z,0
2016-05-23T23:18:09.557Z,0
2016-05-23T23:19:23.763Z,0
2016-05-23T23:20:23.780Z,0
2016-05-23T23:21:09.627Z,0
2016-05-23T23:22:09.646Z,0
2016-05-23T23:23:09.680Z,0
2016-05-23T23:24:09.744Z,0